createdAt,value
2022-10-09T00:02:25.000Z,4.12
2022-10-09T00:07:24.000Z,4.16
2022-10-09T00:12:25.000Z,4.18
2022-10-09T00:17:24.000Z,4.25
2022-10-09T00:22:25.000Z,4.19
2022-10-09T00:27:24.000Z,4.18
2022-10-09T00:32:25.000Z,4.21
2022-10-09T00:37:24.000Z,4.08
2022-10-09T00:42:24.000Z,4.03
2022-10-09T00:47:24.000Z,3.95
2022-10-09T00:52:25.000Z,3.95
2022-10-09T00:57:24.000Z,4.03
2022-10-09T01:02:25.000Z,4.15
2022-10-09T01:07:24.000Z,3.89
2022-10-09T01:12:24.000Z,3.99
2022-10-09T01:17:24.000Z,3.89
2022-10-09T01:22:24.000Z,3.94
2022-10-09T01:27:24.000Z,3.9
2022-10-09T01:32:24.000Z,3.87
2022-10-09T01:37:25.000Z,3.93
2022-10-09T01:42:25.000Z,3.86
2022-10-09T01:47:24.000Z,3.87
2022-10-09T01:57:25.000Z,3.83
2022-10-09T02:02:25.000Z,3.83
2022-10-09T02:07:24.000Z,3.69
2022-10-09T02:12:24.000Z,3.68
2022-10-09T02:17:25.000Z,3.76
2022-10-09T02:22:25.000Z,3.83
2022-10-09T02:27:24.000Z,3.77
2022-10-09T02:32:24.000Z,3.77
2022-10-09T02:37:24.000Z,3.81
2022-10-09T02:42:24.000Z,3.82
2022-10-09T02:47:24.000Z,3.83
2022-10-09T02:52:25.000Z,3.73
2022-10-09T02:57:24.000Z,3.73
2022-10-09T03:02:24.000Z,3.64
2022-10-09T03:07:25.000Z,3.77
2022-10-09T03:12:25.000Z,3.67
2022-10-09T03:17:24.000Z,3.71
2022-10-09T03:22:24.000Z,3.68
2022-10-09T03:27:25.000Z,3.77
2022-10-09T03:32:25.000Z,3.79
2022-10-09T03:37:24.000Z,3.82
2022-10-09T03:47:24.000Z,3.93
2022-10-09T03:52:25.000Z,3.84
2022-10-09T03:57:24.000Z,3.94
2022-10-09T04:02:24.000Z,3.95
2022-10-09T04:12:24.000Z,3.76
2022-10-09T04:17:24.000Z,3.78
2022-10-09T04:27:24.000Z,3.9
2022-10-09T04:32:24.000Z,3.8
2022-10-09T04:37:24.000Z,3.83
2022-10-09T04:42:25.000Z,3.79
2022-10-09T04:47:24.000Z,3.85
2022-10-09T04:52:24.000Z,3.73
2022-10-09T04:57:24.000Z,3.75
2022-10-09T05:02:24.000Z,3.69
2022-10-09T05:07:24.000Z,3.8
2022-10-09T05:12:24.000Z,3.71
2022-10-09T05:17:25.000Z,3.84
2022-10-09T05:27:25.000Z,3.79
2022-10-09T05:32:24.000Z,3.85
2022-10-09T05:37:25.000Z,3.97
2022-10-09T05:42:24.000Z,4.02
2022-10-09T05:47:25.000Z,4.14
2022-10-09T05:52:25.000Z,3.9
2022-10-09T05:57:24.000Z,4.12
2022-10-09T06:02:25.000Z,4.25
2022-10-09T06:07:24.000Z,4.04
2022-10-09T06:12:24.000Z,3.98
2022-10-09T06:17:25.000Z,3.99
2022-10-09T06:22:24.000Z,3.86
2022-10-09T06:27:24.000Z,3.83
2022-10-09T06:32:24.000Z,3.76
2022-10-09T06:42:24.000Z,3.88
2022-10-09T06:47:24.000Z,3.82
2022-10-09T06:52:24.000Z,3.94
2022-10-09T06:57:24.000Z,3.99
2022-10-09T07:02:25.000Z,3.94
2022-10-09T07:07:24.000Z,4.18
2022-10-09T07:12:24.000Z,4.02
2022-10-09T07:17:24.000Z,4.21
2022-10-09T07:22:24.000Z,4.08
2022-10-09T07:27:24.000Z,4.12
2022-10-09T07:32:25.000Z,4.05
2022-10-09T07:37:24.000Z,4.14
2022-10-09T07:42:25.000Z,4.03
2022-10-09T07:47:24.000Z,3.98
2022-10-09T07:52:24.000Z,3.99
2022-10-09T07:57:24.000Z,3.87
2022-10-09T08:02:25.000Z,3.86
2022-10-09T08:07:24.000Z,3.79
2022-10-09T08:12:24.000Z,3.83
2022-10-09T08:17:24.000Z,3.89
2022-10-09T08:22:25.000Z,4.02
2022-10-09T08:27:25.000Z,4.11
2022-10-09T08:32:24.000Z,4.3
2022-10-09T08:42:25.000Z,4.03
2022-10-09T08:47:24.000Z,3.92
2022-10-09T08:52:25.000Z,3.84
2022-10-09T08:57:25.000Z,3.86
2022-10-09T09:02:24.000Z,3.89
2022-10-09T09:07:24.000Z,3.86
2022-10-09T09:12:24.000Z,3.84
2022-10-09T09:17:24.000Z,3.7
2022-10-09T09:22:24.000Z,3.81
2022-10-09T09:27:25.000Z,3.87
2022-10-09T09:32:25.000Z,3.81
2022-10-09T09:37:25.000Z,3.62
2022-10-09T09:42:24.000Z,3.62
2022-10-09T09:47:24.000Z,3.42
2022-10-09T09:52:25.000Z,3.34
2022-10-09T09:57:24.000Z,3.16
2022-10-09T10:02:25.000Z,3.22
2022-10-09T10:07:24.000Z,3.42
2022-10-09T10:12:24.000Z,3.44
2022-10-09T10:17:25.000Z,3.21
2022-10-09T10:22:24.000Z,3.39
2022-10-09T10:27:24.000Z,3.4
2022-10-09T10:32:25.000Z,3.37
2022-10-09T10:37:24.000Z,3.9
2022-10-09T10:42:25.000Z,3.6
2022-10-09T10:47:24.000Z,3.28
2022-10-09T10:52:25.000Z,3.2
2022-10-09T10:57:24.000Z,3.15
2022-10-09T11:02:25.000Z,3.27
2022-10-09T11:07:25.000Z,3.41
2022-10-09T11:12:24.000Z,3.23
2022-10-09T11:17:25.000Z,3.2
2022-10-09T11:22:25.000Z,3.51
2022-10-09T11:27:24.000Z,3.81
2022-10-09T11:32:24.000Z,3.5
2022-10-09T11:37:25.000Z,3.16
2022-10-09T11:42:24.000Z,3.35
2022-10-09T11:47:24.000Z,3.49
2022-10-09T11:52:25.000Z,3.53
2022-10-09T11:57:24.000Z,3.5
2022-10-09T12:02:24.000Z,3.42
2022-10-09T12:07:24.000Z,3.55
2022-10-09T12:12:24.000Z,3.48
2022-10-09T12:17:24.000Z,3.55
2022-10-09T12:22:24.000Z,3.79
2022-10-09T12:27:25.000Z,3.89
2022-10-09T12:32:24.000Z,3.72
2022-10-09T12:37:24.000Z,3.99
2022-10-09T12:42:24.000Z,3.9
2022-10-09T12:47:25.000Z,4.37
2022-10-09T12:52:24.000Z,4.02
2022-10-09T12:57:25.000Z,3.39
2022-10-09T13:02:24.000Z,3.51
2022-10-09T13:07:24.000Z,3.96
2022-10-09T13:12:24.000Z,4.16
2022-10-09T13:17:24.000Z,4.24
2022-10-09T13:22:24.000Z,4.09
2022-10-09T13:27:24.000Z,4.13
2022-10-09T13:32:24.000Z,4.22
2022-10-09T13:37:24.000Z,4
2022-10-09T13:42:24.000Z,4.15
2022-10-09T13:47:24.000Z,4.27
2022-10-09T13:52:24.000Z,4.3
2022-10-09T13:57:24.000Z,4.5
2022-10-09T14:02:24.000Z,4.97
2022-10-09T14:12:25.000Z,4.97
2022-10-09T14:17:24.000Z,4.93
2022-10-09T14:22:24.000Z,5.33
2022-10-09T14:27:24.000Z,6.09
2022-10-09T14:32:24.000Z,5.55
2022-10-09T14:37:25.000Z,5.19
2022-10-09T14:42:24.000Z,5.04
2022-10-09T14:47:25.000Z,4.86
2022-10-09T14:52:24.000Z,5.39
2022-10-09T14:57:24.000Z,4.91
2022-10-09T15:02:24.000Z,4.22
2022-10-09T15:07:24.000Z,4.33
2022-10-09T15:12:24.000Z,4.3
2022-10-09T15:17:24.000Z,4.15
2022-10-09T15:22:24.000Z,4.32
2022-10-09T15:27:25.000Z,4.21
2022-10-09T15:32:24.000Z,4.13
2022-10-09T15:37:24.000Z,4.73
2022-10-09T15:42:24.000Z,3.59
2022-10-09T15:47:24.000Z,3.51
2022-10-09T15:52:24.000Z,3.21
2022-10-09T15:57:24.000Z,2.93
2022-10-09T16:02:25.000Z,2.72
2022-10-09T16:07:24.000Z,2.73
2022-10-09T16:12:25.000Z,3.18
2022-10-09T16:17:25.000Z,2.84
2022-10-09T16:22:24.000Z,2.29
2022-10-09T16:27:25.000Z,2.52
2022-10-09T16:32:24.000Z,2.5
2022-10-09T16:37:24.000Z,2.54
2022-10-09T16:42:24.000Z,2.82
2022-10-09T16:47:25.000Z,3.1
2022-10-09T16:52:24.000Z,4.18
2022-10-09T16:57:25.000Z,3.47
2022-10-09T17:02:24.000Z,3.35
2022-10-09T17:07:24.000Z,3.46
2022-10-09T17:12:25.000Z,3.78
2022-10-09T17:17:24.000Z,4.34
2022-10-09T17:22:25.000Z,4.82
2022-10-09T17:27:25.000Z,3.68
2022-10-09T17:37:24.000Z,4.08
2022-10-09T17:42:24.000Z,4.78
2022-10-09T17:47:25.000Z,5.13
2022-10-09T17:52:24.000Z,4.96
2022-10-09T17:57:24.000Z,4.79
2022-10-09T18:02:24.000Z,5.02
2022-10-09T18:07:25.000Z,5.17
2022-10-09T18:12:24.000Z,5.03
2022-10-09T18:17:24.000Z,5.07
2022-10-09T18:22:25.000Z,5.22
2022-10-09T18:27:24.000Z,5.18
2022-10-09T18:32:25.000Z,5.14
2022-10-09T18:37:24.000Z,5.4
2022-10-09T18:42:24.000Z,5.28
2022-10-09T18:47:24.000Z,5.66
2022-10-09T18:52:25.000Z,5.72
2022-10-09T18:57:25.000Z,5.4
2022-10-09T19:02:24.000Z,5.42
2022-10-09T19:07:24.000Z,5.36
2022-10-09T19:12:25.000Z,5.49
2022-10-09T19:17:25.000Z,6.11
2022-10-09T19:22:24.000Z,6.37
2022-10-09T19:27:24.000Z,6.84
2022-10-09T19:32:24.000Z,6.79
2022-10-09T19:37:24.000Z,6.78
2022-10-09T19:47:25.000Z,7.04
2022-10-09T19:52:24.000Z,6.72
2022-10-09T19:57:24.000Z,6.65
2022-10-09T20:02:25.000Z,6.66
2022-10-09T20:07:24.000Z,6.69
2022-10-09T20:17:24.000Z,7.24
2022-10-09T20:22:24.000Z,6.67
2022-10-09T20:27:24.000Z,6.46
2022-10-09T20:32:24.000Z,6.55
2022-10-09T20:37:24.000Z,6.55
2022-10-09T20:47:24.000Z,6.69
2022-10-09T20:52:24.000Z,6.55
2022-10-09T20:57:24.000Z,6.52
2022-10-09T21:02:25.000Z,6.61
2022-10-09T21:07:24.000Z,6.93
2022-10-09T21:12:24.000Z,6.72
2022-10-09T21:17:24.000Z,6.62
2022-10-09T21:22:24.000Z,6.37
2022-10-09T21:27:24.000Z,6.97
2022-10-09T21:32:25.000Z,6.09
2022-10-09T21:37:24.000Z,5.75
2022-10-09T21:47:24.000Z,5.42
2022-10-09T21:52:25.000Z,5.64
2022-10-09T21:57:25.000Z,5.93
2022-10-09T22:02:24.000Z,5.56
2022-10-09T22:07:24.000Z,4.91
2022-10-09T22:12:24.000Z,4.76
2022-10-09T22:17:25.000Z,4.64
2022-10-09T22:22:25.000Z,4.39
2022-10-09T22:27:24.000Z,4.43
2022-10-09T22:32:25.000Z,4.4
2022-10-09T22:37:24.000Z,4.3
2022-10-09T22:42:24.000Z,4.13
2022-10-09T22:47:25.000Z,4.05
2022-10-09T22:52:24.000Z,4.29
2022-10-09T22:57:25.000Z,3.97
2022-10-09T23:02:24.000Z,3.81
2022-10-09T23:07:25.000Z,3.64
2022-10-09T23:12:24.000Z,3.48
2022-10-09T23:17:24.000Z,3.47
2022-10-09T23:22:25.000Z,3.49
2022-10-09T23:27:25.000Z,3.36
2022-10-09T23:32:25.000Z,3.32
2022-10-09T23:37:25.000Z,3.19
2022-10-09T23:42:24.000Z,3.18
2022-10-09T23:47:24.000Z,3.11
2022-10-09T23:52:24.000Z,2.94
2022-10-09T23:57:25.000Z,2.94
